Terminal Aerodrome Forecast
Issued by NWS

Home | Current Version | Previous Version | Text Only | Print | Product List | Glossary On
Versions: 1 2 3 4 5 6 7 8 9 10 11 12 13 14 15 16 17 18 19 20
000
FTUS44 KLIX 010047 AAA
TAFMSY
TAF AMD
KMSY 010047Z 0101/0124 15008KT P6SM FEW008 BKN070 BKN100
     FM010200 16010KT P6SM FEW035
     FM010800 16007KT 5SM BR OVC009
     FM011500 16010KT P6SM VCTS BKN025CB=

USA.gov is the U.S. government's official web portal to all federal, state and local government web resources and services.